sensor_id;sensor_type;location;lat;lon;timestamp;temperature;humidity
18906;DHT22;9585;51.018;4.282;2023-11-18T00:01:30;5.10;99.90
18906;DHT22;9585;51.018;4.282;2023-11-18T00:03:59;5.10;99.90
18906;DHT22;9585;51.018;4.282;2023-11-18T00:06:26;5.10;99.90
18906;DHT22;9585;51.018;4.282;2023-11-18T00:08:54;5.10;99.90
18906;DHT22;9585;51.018;4.282;2023-11-18T00:11:22;5.10;99.90
18906;DHT22;9585;51.018;4.282;2023-11-18T00:13:50;5.10;99.90
18906;DHT22;9585;51.018;4.282;2023-11-18T00:16:17;5.10;99.90
18906;DHT22;9585;51.018;4.282;2023-11-18T00:18:57;5.10;99.90
18906;DHT22;9585;51.018;4.282;2023-11-18T00:21:25;5.10;99.90
18906;DHT22;9585;51.018;4.282;2023-11-18T00:23:53;5.00;99.90
18906;DHT22;9585;51.018;4.282;2023-11-18T00:26:21;5.00;99.90
18906;DHT22;9585;51.018;4.282;2023-11-18T00:28:49;5.00;99.90
18906;DHT22;9585;51.018;4.282;2023-11-18T00:31:17;5.00;99.90
18906;DHT22;9585;51.018;4.282;2023-11-18T00:33:45;5.00;99.90
18906;DHT22;9585;51.018;4.282;2023-11-18T00:36:14;5.10;99.90
18906;DHT22;9585;51.018;4.282;2023-11-18T00:38:42;5.10;99.90
18906;DHT22;9585;51.018;4.282;2023-11-18T00:41:09;5.10;99.90
18906;DHT22;9585;51.018;4.282;2023-11-18T00:43:38;5.10;99.90
18906;DHT22;9585;51.018;4.282;2023-11-18T00:46:06;5.10;99.90
18906;DHT22;9585;51.018;4.282;2023-11-18T00:48:35;5.00;99.90
18906;DHT22;9585;51.018;4.282;2023-11-18T00:51:04;5.00;99.90
18906;DHT22;9585;51.018;4.282;2023-11-18T00:53:35;5.10;99.90
18906;DHT22;9585;51.018;4.282;2023-11-18T00:56:03;5.10;99.90
18906;DHT22;9585;51.018;4.282;2023-11-18T00:58:34;5.20;99.90
18906;DHT22;9585;51.018;4.282;2023-11-18T01:01:06;5.10;99.90
18906;DHT22;9585;51.018;4.282;2023-11-18T01:03:34;5.20;99.90
18906;DHT22;9585;51.018;4.282;2023-11-18T01:06:01;5.20;99.90
18906;DHT22;9585;51.018;4.282;2023-11-18T01:08:31;5.20;99.90
18906;DHT22;9585;51.018;4.282;2023-11-18T01:11:00;5.30;99.90
18906;DHT22;9585;51.018;4.282;2023-11-18T01:13:28;5.30;99.90
18906;DHT22;9585;51.018;4.282;2023-11-18T01:15:56;5.30;99.90
18906;DHT22;9585;51.018;4.282;2023-11-18T01:18:24;5.40;99.90
18906;DHT22;9585;51.018;4.282;2023-11-18T01:20:51;5.40;99.90
18906;DHT22;9585;51.018;4.282;2023-11-18T01:23:19;5.40;99.90
18906;DHT22;9585;51.018;4.282;2023-11-18T01:25:47;5.40;99.90
18906;DHT22;9585;51.018;4.282;2023-11-18T01:28:18;5.40;99.90
18906;DHT22;9585;51.018;4.282;2023-11-18T01:30:46;5.40;99.90
18906;DHT22;9585;51.018;4.282;2023-11-18T01:33:13;5.30;99.90
18906;DHT22;9585;51.018;4.282;2023-11-18T01:35:42;5.20;99.90
18906;DHT22;9585;51.018;4.282;2023-11-18T01:38:10;5.20;99.90
18906;DHT22;9585;51.018;4.282;2023-11-18T01:40:39;5.20;99.90
18906;DHT22;9585;51.018;4.282;2023-11-18T01:43:09;5.20;99.90
18906;DHT22;9585;51.018;4.282;2023-11-18T01:45:42;5.30;99.90
18906;DHT22;9585;51.018;4.282;2023-11-18T01:48:09;5.30;99.90
18906;DHT22;9585;51.018;4.282;2023-11-18T01:50:38;5.40;99.90
18906;DHT22;9585;51.018;4.282;2023-11-18T01:53:07;5.40;99.90
18906;DHT22;9585;51.018;4.282;2023-11-18T01:55:36;5.40;99.90
18906;DHT22;9585;51.018;4.282;2023-11-18T01:58:05;5.40;99.90
18906;DHT22;9585;51.018;4.282;2023-11-18T02:00:37;5.40;99.90
18906;DHT22;9585;51.018;4.282;2023-11-18T02:03:08;5.40;99.90
18906;DHT22;9585;51.018;4.282;2023-11-18T02:05:37;5.40;99.90
18906;DHT22;9585;51.018;4.282;2023-11-18T02:08:05;5.40;99.90
18906;DHT22;9585;51.018;4.282;2023-11-18T02:10:34;5.40;99.90
18906;DHT22;9585;51.018;4.282;2023-11-18T02:13:06;5.40;99.90
18906;DHT22;9585;51.018;4.282;2023-11-18T02:15:39;5.40;99.90
18906;DHT22;9585;51.018;4.282;2023-11-18T02:18:09;5.50;99.90
18906;DHT22;9585;51.018;4.282;2023-11-18T02:20:38;5.40;99.90
18906;DHT22;9585;51.018;4.282;2023-11-18T02:23:07;5.40;99.90
18906;DHT22;9585;51.018;4.282;2023-11-18T02:25:43;5.50;99.90
18906;DHT22;9585;51.018;4.282;2023-11-18T02:28:12;5.50;99.90
18906;DHT22;9585;51.018;4.282;2023-11-18T02:30:40;5.50;99.90
18906;DHT22;9585;51.018;4.282;2023-11-18T02:33:13;5.50;99.90
18906;DHT22;9585;51.018;4.282;2023-11-18T02:35:48;5.50;99.90
18906;DHT22;9585;51.018;4.282;2023-11-18T02:38:22;5.50;99.90
18906;DHT22;9585;51.018;4.282;2023-11-18T02:40:56;5.50;99.90
18906;DHT22;9585;51.018;4.282;2023-11-18T02:43:26;5.50;99.90
18906;DHT22;9585;51.018;4.282;2023-11-18T02:45:56;5.60;99.90
18906;DHT22;9585;51.018;4.282;2023-11-18T02:48:26;5.60;99.90
18906;DHT22;9585;51.018;4.282;2023-11-18T02:50:55;5.50;99.90
18906;DHT22;9585;51.018;4.282;2023-11-18T02:53:22;5.50;99.90
18906;DHT22;9585;51.018;4.282;2023-11-18T02:55:50;5.50;99.90
18906;DHT22;9585;51.018;4.282;2023-11-18T02:58:20;5.50;99.90
18906;DHT22;9585;51.018;4.282;2023-11-18T03:00:48;5.50;99.90
18906;DHT22;9585;51.018;4.282;2023-11-18T03:03:16;5.50;99.90
18906;DHT22;9585;51.018;4.282;2023-11-18T03:05:43;5.50;99.90
18906;DHT22;9585;51.018;4.282;2023-11-18T03:08:11;5.50;99.90
18906;DHT22;9585;51.018;4.282;2023-11-18T03:10:39;5.50;99.90
18906;DHT22;9585;51.018;4.282;2023-11-18T03:13:10;5.50;99.90
18906;DHT22;9585;51.018;4.282;2023-11-18T03:15:41;5.50;99.90
18906;DHT22;9585;51.018;4.282;2023-11-18T03:18:08;5.50;99.90
18906;DHT22;9585;51.018;4.282;2023-11-18T03:20:36;5.50;99.90
18906;DHT22;9585;51.018;4.282;2023-11-18T03:23:04;5.50;99.90
18906;DHT22;9585;51.018;4.282;2023-11-18T03:25:33;5.50;99.90
18906;DHT22;9585;51.018;4.282;2023-11-18T03:28:01;5.60;99.90
18906;DHT22;9585;51.018;4.282;2023-11-18T03:30:31;5.60;99.90
18906;DHT22;9585;51.018;4.282;2023-11-18T03:33:00;5.60;99.90
18906;DHT22;9585;51.018;4.282;2023-11-18T03:35:28;5.70;99.90
18906;DHT22;9585;51.018;4.282;2023-11-18T03:37:56;5.70;99.90
18906;DHT22;9585;51.018;4.282;2023-11-18T03:40:23;5.70;99.90
18906;DHT22;9585;51.018;4.282;2023-11-18T03:42:51;5.70;99.90
18906;DHT22;9585;51.018;4.282;2023-11-18T03:45:19;5.70;99.90
18906;DHT22;9585;51.018;4.282;2023-11-18T03:47:47;5.80;99.90
18906;DHT22;9585;51.018;4.282;2023-11-18T03:50:18;5.70;99.90
18906;DHT22;9585;51.018;4.282;2023-11-18T03:52:45;5.70;99.90
18906;DHT22;9585;51.018;4.282;2023-11-18T03:55:13;5.80;99.90
18906;DHT22;9585;51.018;4.282;2023-11-18T03:57:41;5.90;99.90
18906;DHT22;9585;51.018;4.282;2023-11-18T04:00:14;5.90;99.90
18906;DHT22;9585;51.018;4.282;2023-11-18T04:02:42;5.90;99.90
18906;DHT22;9585;51.018;4.282;2023-11-18T04:05:11;5.90;99.90
18906;DHT22;9585;51.018;4.282;2023-11-18T04:07:41;5.90;99.90
18906;DHT22;9585;51.018;4.282;2023-11-18T04:10:09;6.00;99.90
18906;DHT22;9585;51.018;4.282;2023-11-18T04:12:37;5.90;99.90
18906;DHT22;9585;51.018;4.282;2023-11-18T04:15:06;6.00;99.90
18906;DHT22;9585;51.018;4.282;2023-11-18T04:17:33;6.10;99.90
18906;DHT22;9585;51.018;4.282;2023-11-18T04:20:01;6.10;99.90
18906;DHT22;9585;51.018;4.282;2023-11-18T04:22:31;6.10;99.90
18906;DHT22;9585;51.018;4.282;2023-11-18T04:25:00;6.20;99.90
18906;DHT22;9585;51.018;4.282;2023-11-18T04:27:28;6.10;99.90
18906;DHT22;9585;51.018;4.282;2023-11-18T04:29:56;6.10;99.90
18906;DHT22;9585;51.018;4.282;2023-11-18T04:32:24;6.00;99.90
18906;DHT22;9585;51.018;4.282;2023-11-18T04:34:51;6.00;99.90
18906;DHT22;9585;51.018;4.282;2023-11-18T04:37:19;6.00;99.90
18906;DHT22;9585;51.018;4.282;2023-11-18T04:39:47;6.10;99.90
18906;DHT22;9585;51.018;4.282;2023-11-18T04:42:16;6.10;99.90
18906;DHT22;9585;51.018;4.282;2023-11-18T04:44:44;6.10;99.90
18906;DHT22;9585;51.018;4.282;2023-11-18T04:47:12;6.10;99.90
18906;DHT22;9585;51.018;4.282;2023-11-18T04:49:39;6.10;99.90
18906;DHT22;9585;51.018;4.282;2023-11-18T04:52:07;6.10;99.90
18906;DHT22;9585;51.018;4.282;2023-11-18T04:54:35;6.20;99.90
18906;DHT22;9585;51.018;4.282;2023-11-18T04:57:03;6.10;99.90
18906;DHT22;9585;51.018;4.282;2023-11-18T04:59:34;6.10;99.90
18906;DHT22;9585;51.018;4.282;2023-11-18T05:02:02;6.20;99.90
18906;DHT22;9585;51.018;4.282;2023-11-18T05:04:29;6.20;99.90
18906;DHT22;9585;51.018;4.282;2023-11-18T05:06:56;6.30;99.90
18906;DHT22;9585;51.018;4.282;2023-11-18T05:09:24;6.30;99.90
18906;DHT22;9585;51.018;4.282;2023-11-18T05:11:52;6.30;99.90
18906;DHT22;9585;51.018;4.282;2023-11-18T05:14:21;6.30;99.90
18906;DHT22;9585;51.018;4.282;2023-11-18T05:16:49;6.20;99.90
18906;DHT22;9585;51.018;4.282;2023-11-18T05:19:17;6.30;99.90
18906;DHT22;9585;51.018;4.282;2023-11-18T05:21:44;6.30;99.90
18906;DHT22;9585;51.018;4.282;2023-11-18T05:24:15;6.30;99.90
18906;DHT22;9585;51.018;4.282;2023-11-18T05:26:43;6.40;99.90
18906;DHT22;9585;51.018;4.282;2023-11-18T05:29:11;6.40;99.90
18906;DHT22;9585;51.018;4.282;2023-11-18T05:31:42;6.40;99.90
18906;DHT22;9585;51.018;4.282;2023-11-18T05:34:11;6.40;99.90
18906;DHT22;9585;51.018;4.282;2023-11-18T05:36:38;6.40;99.90
18906;DHT22;9585;51.018;4.282;2023-11-18T05:39:06;6.40;99.90
18906;DHT22;9585;51.018;4.282;2023-11-18T05:41:35;6.40;99.90
18906;DHT22;9585;51.018;4.282;2023-11-18T05:44:06;6.50;99.90
18906;DHT22;9585;51.018;4.282;2023-11-18T05:46:35;6.50;99.90
18906;DHT22;9585;51.018;4.282;2023-11-18T05:49:04;6.60;99.90
18906;DHT22;9585;51.018;4.282;2023-11-18T05:51:35;6.60;99.90
18906;DHT22;9585;51.018;4.282;2023-11-18T05:54:03;6.60;99.90
18906;DHT22;9585;51.018;4.282;2023-11-18T05:56:31;6.60;99.90
18906;DHT22;9585;51.018;4.282;2023-11-18T05:58:59;6.60;99.90
18906;DHT22;9585;51.018;4.282;2023-11-18T06:01:29;6.60;99.90
18906;DHT22;9585;51.018;4.282;2023-11-18T06:03:57;6.60;99.90
18906;DHT22;9585;51.018;4.282;2023-11-18T06:06:26;6.60;99.90
18906;DHT22;9585;51.018;4.282;2023-11-18T06:08:56;6.60;99.90
18906;DHT22;9585;51.018;4.282;2023-11-18T06:11:25;6.60;99.90
18906;DHT22;9585;51.018;4.282;2023-11-18T06:13:52;6.70;99.90
18906;DHT22;9585;51.018;4.282;2023-11-18T06:16:21;6.70;99.90
18906;DHT22;9585;51.018;4.282;2023-11-18T06:18:51;6.70;99.90
18906;DHT22;9585;51.018;4.282;2023-11-18T06:21:19;6.70;99.90
18906;DHT22;9585;51.018;4.282;2023-11-18T06:23:50;6.80;99.90
18906;DHT22;9585;51.018;4.282;2023-11-18T06:26:19;6.80;99.90
18906;DHT22;9585;51.018;4.282;2023-11-18T06:28:48;6.90;99.90
18906;DHT22;9585;51.018;4.282;2023-11-18T06:31:16;6.80;99.90
18906;DHT22;9585;51.018;4.282;2023-11-18T06:33:45;6.80;99.90
18906;DHT22;9585;51.018;4.282;2023-11-18T06:36:17;6.80;99.90
18906;DHT22;9585;51.018;4.282;2023-11-18T06:38:45;6.80;99.90
18906;DHT22;9585;51.018;4.282;2023-11-18T06:41:13;6.90;99.90
18906;DHT22;9585;51.018;4.282;2023-11-18T06:43:46;6.90;99.90
18906;DHT22;9585;51.018;4.282;2023-11-18T06:46:23;7.00;99.90
18906;DHT22;9585;51.018;4.282;2023-11-18T06:48:51;7.00;99.90
18906;DHT22;9585;51.018;4.282;2023-11-18T06:51:20;7.00;99.90
18906;DHT22;9585;51.018;4.282;2023-11-18T06:53:50;7.00;99.90
18906;DHT22;9585;51.018;4.282;2023-11-18T06:56:18;7.00;99.90
18906;DHT22;9585;51.018;4.282;2023-11-18T06:58:47;7.00;99.90
18906;DHT22;9585;51.018;4.282;2023-11-18T07:01:15;7.00;99.90
18906;DHT22;9585;51.018;4.282;2023-11-18T07:03:43;7.10;99.90
18906;DHT22;9585;51.018;4.282;2023-11-18T07:06:11;7.10;99.90
18906;DHT22;9585;51.018;4.282;2023-11-18T07:08:40;7.10;99.90
18906;DHT22;9585;51.018;4.282;2023-11-18T07:11:07;7.10;99.90
18906;DHT22;9585;51.018;4.282;2023-11-18T07:13:36;7.10;99.90
18906;DHT22;9585;51.018;4.282;2023-11-18T07:16:07;7.10;99.90
18906;DHT22;9585;51.018;4.282;2023-11-18T07:18:35;7.10;99.90
18906;DHT22;9585;51.018;4.282;2023-11-18T07:21:03;7.00;99.90
18906;DHT22;9585;51.018;4.282;2023-11-18T07:23:31;7.00;99.90
18906;DHT22;9585;51.018;4.282;2023-11-18T07:25:59;7.00;99.90
18906;DHT22;9585;51.018;4.282;2023-11-18T07:28:27;7.10;99.90
18906;DHT22;9585;51.018;4.282;2023-11-18T07:30:55;7.10;99.90
18906;DHT22;9585;51.018;4.282;2023-11-18T07:33:25;7.10;99.90
18906;DHT22;9585;51.018;4.282;2023-11-18T07:35:52;7.20;99.90
18906;DHT22;9585;51.018;4.282;2023-11-18T07:38:20;7.20;99.90
18906;DHT22;9585;51.018;4.282;2023-11-18T07:40:49;7.30;99.90
18906;DHT22;9585;51.018;4.282;2023-11-18T07:43:18;7.30;99.90
18906;DHT22;9585;51.018;4.282;2023-11-18T07:45:47;7.30;99.90
18906;DHT22;9585;51.018;4.282;2023-11-18T07:48:17;7.30;99.90
18906;DHT22;9585;51.018;4.282;2023-11-18T07:50:47;7.20;99.90
18906;DHT22;9585;51.018;4.282;2023-11-18T07:53:15;7.20;99.90
18906;DHT22;9585;51.018;4.282;2023-11-18T07:55:43;7.00;99.90
18906;DHT22;9585;51.018;4.282;2023-11-18T07:58:11;7.10;99.90
18906;DHT22;9585;51.018;4.282;2023-11-18T08:00:38;7.10;99.90
18906;DHT22;9585;51.018;4.282;2023-11-18T08:03:06;7.20;99.90
18906;DHT22;9585;51.018;4.282;2023-11-18T08:05:37;7.10;99.90
18906;DHT22;9585;51.018;4.282;2023-11-18T08:08:07;7.00;99.90
18906;DHT22;9585;51.018;4.282;2023-11-18T08:10:36;7.10;99.90
18906;DHT22;9585;51.018;4.282;2023-11-18T08:13:05;7.00;99.90
18906;DHT22;9585;51.018;4.282;2023-11-18T08:15:34;7.10;99.90
18906;DHT22;9585;51.018;4.282;2023-11-18T08:18:01;7.00;99.90
18906;DHT22;9585;51.018;4.282;2023-11-18T08:20:29;7.00;99.90
18906;DHT22;9585;51.018;4.282;2023-11-18T08:22:57;7.10;99.90
18906;DHT22;9585;51.018;4.282;2023-11-18T08:25:26;7.00;99.90
18906;DHT22;9585;51.018;4.282;2023-11-18T08:27:54;6.90;99.90
18906;DHT22;9585;51.018;4.282;2023-11-18T08:30:21;6.90;99.90
18906;DHT22;9585;51.018;4.282;2023-11-18T08:32:49;6.90;99.90
18906;DHT22;9585;51.018;4.282;2023-11-18T08:35:17;6.90;99.90
18906;DHT22;9585;51.018;4.282;2023-11-18T08:37:44;6.90;99.90
18906;DHT22;9585;51.018;4.282;2023-11-18T08:40:13;6.90;99.90
18906;DHT22;9585;51.018;4.282;2023-11-18T08:42:44;6.90;99.90
18906;DHT22;9585;51.018;4.282;2023-11-18T08:45:16;6.90;99.90
18906;DHT22;9585;51.018;4.282;2023-11-18T08:47:44;6.90;99.90
18906;DHT22;9585;51.018;4.282;2023-11-18T08:50:13;7.00;99.90
18906;DHT22;9585;51.018;4.282;2023-11-18T08:52:42;7.00;99.90
18906;DHT22;9585;51.018;4.282;2023-11-18T08:55:12;7.00;99.90
18906;DHT22;9585;51.018;4.282;2023-11-18T08:57:45;7.00;99.90
18906;DHT22;9585;51.018;4.282;2023-11-18T09:00:24;7.10;99.90
18906;DHT22;9585;51.018;4.282;2023-11-18T09:03:14;7.20;99.90
18906;DHT22;9585;51.018;4.282;2023-11-18T09:05:51;7.30;99.90
18906;DHT22;9585;51.018;4.282;2023-11-18T09:08:30;7.30;99.90
18906;DHT22;9585;51.018;4.282;2023-11-18T09:11:01;7.20;99.90
18906;DHT22;9585;51.018;4.282;2023-11-18T09:13:33;7.20;99.90
18906;DHT22;9585;51.018;4.282;2023-11-18T09:16:02;7.20;99.90
18906;DHT22;9585;51.018;4.282;2023-11-18T09:18:34;7.20;99.90
18906;DHT22;9585;51.018;4.282;2023-11-18T09:21:02;7.20;99.90
18906;DHT22;9585;51.018;4.282;2023-11-18T09:23:31;7.00;99.90
18906;DHT22;9585;51.018;4.282;2023-11-18T09:26:00;7.00;99.90
18906;DHT22;9585;51.018;4.282;2023-11-18T09:28:28;6.90;99.90
18906;DHT22;9585;51.018;4.282;2023-11-18T09:30:57;6.90;99.90
18906;DHT22;9585;51.018;4.282;2023-11-18T09:33:26;6.90;99.90
18906;DHT22;9585;51.018;4.282;2023-11-18T09:35:58;7.00;99.90
18906;DHT22;9585;51.018;4.282;2023-11-18T09:38:27;7.00;99.90
18906;DHT22;9585;51.018;4.282;2023-11-18T09:40:58;7.00;99.90
18906;DHT22;9585;51.018;4.282;2023-11-18T09:43:29;7.20;99.90
18906;DHT22;9585;51.018;4.282;2023-11-18T09:46:04;7.20;99.90
18906;DHT22;9585;51.018;4.282;2023-11-18T09:48:34;7.10;99.90
18906;DHT22;9585;51.018;4.282;2023-11-18T09:51:07;7.00;99.90
18906;DHT22;9585;51.018;4.282;2023-11-18T09:53:38;7.00;99.90
18906;DHT22;9585;51.018;4.282;2023-11-18T09:56:10;7.00;99.90
18906;DHT22;9585;51.018;4.282;2023-11-18T09:58:51;6.90;99.90
18906;DHT22;9585;51.018;4.282;2023-11-18T10:01:25;6.90;99.90
18906;DHT22;9585;51.018;4.282;2023-11-18T10:04:00;6.90;99.90
18906;DHT22;9585;51.018;4.282;2023-11-18T10:06:34;7.00;99.90
18906;DHT22;9585;51.018;4.282;2023-11-18T10:09:03;7.00;99.90
18906;DHT22;9585;51.018;4.282;2023-11-18T10:11:42;7.20;99.90
18906;DHT22;9585;51.018;4.282;2023-11-18T10:14:13;7.20;99.90
18906;DHT22;9585;51.018;4.282;2023-11-18T10:16:45;7.20;99.90
18906;DHT22;9585;51.018;4.282;2023-11-18T10:19:14;7.30;99.90
18906;DHT22;9585;51.018;4.282;2023-11-18T10:21:43;7.20;99.90
18906;DHT22;9585;51.018;4.282;2023-11-18T10:24:15;7.20;99.90
18906;DHT22;9585;51.018;4.282;2023-11-18T10:26:46;7.10;99.90
18906;DHT22;9585;51.018;4.282;2023-11-18T10:29:15;7.20;99.90
18906;DHT22;9585;51.018;4.282;2023-11-18T10:31:45;7.20;99.90
18906;DHT22;9585;51.018;4.282;2023-11-18T10:34:14;7.20;99.90
18906;DHT22;9585;51.018;4.282;2023-11-18T10:36:58;7.30;99.90
18906;DHT22;9585;51.018;4.282;2023-11-18T10:39:32;7.40;99.90
18906;DHT22;9585;51.018;4.282;2023-11-18T10:42:01;7.40;99.90
18906;DHT22;9585;51.018;4.282;2023-11-18T10:44:29;7.40;99.90
18906;DHT22;9585;51.018;4.282;2023-11-18T10:46:58;7.30;99.90
18906;DHT22;9585;51.018;4.282;2023-11-18T10:49:27;7.30;99.90
18906;DHT22;9585;51.018;4.282;2023-11-18T10:51:56;7.20;99.90
18906;DHT22;9585;51.018;4.282;2023-11-18T10:54:23;7.30;99.90
18906;DHT22;9585;51.018;4.282;2023-11-18T10:56:52;7.40;99.90
18906;DHT22;9585;51.018;4.282;2023-11-18T10:59:22;7.40;99.90
18906;DHT22;9585;51.018;4.282;2023-11-18T11:01:51;7.40;99.90
18906;DHT22;9585;51.018;4.282;2023-11-18T11:04:20;7.30;99.90
18906;DHT22;9585;51.018;4.282;2023-11-18T11:06:49;7.30;99.90
18906;DHT22;9585;51.018;4.282;2023-11-18T11:09:20;7.20;99.90
18906;DHT22;9585;51.018;4.282;2023-11-18T11:11:54;7.10;99.90
18906;DHT22;9585;51.018;4.282;2023-11-18T11:14:27;7.20;99.90
18906;DHT22;9585;51.018;4.282;2023-11-18T11:17:04;7.30;99.90
18906;DHT22;9585;51.018;4.282;2023-11-18T11:19:45;7.50;99.90
18906;DHT22;9585;51.018;4.282;2023-11-18T11:22:17;7.50;99.90
18906;DHT22;9585;51.018;4.282;2023-11-18T11:25:00;7.40;99.90
18906;DHT22;9585;51.018;4.282;2023-11-18T11:27:41;7.50;99.90
18906;DHT22;9585;51.018;4.282;2023-11-18T11:30:21;7.60;99.90
18906;DHT22;9585;51.018;4.282;2023-11-18T11:32:51;7.60;99.90
18906;DHT22;9585;51.018;4.282;2023-11-18T11:35:23;7.60;99.90
18906;DHT22;9585;51.018;4.282;2023-11-18T11:37:53;7.60;99.90
18906;DHT22;9585;51.018;4.282;2023-11-18T11:40:29;7.60;99.90
18906;DHT22;9585;51.018;4.282;2023-11-18T11:42:57;7.60;99.90
18906;DHT22;9585;51.018;4.282;2023-11-18T11:45:30;7.60;99.90
18906;DHT22;9585;51.018;4.282;2023-11-18T11:48:00;7.60;99.90
18906;DHT22;9585;51.018;4.282;2023-11-18T11:50:55;7.70;99.90
18906;DHT22;9585;51.018;4.282;2023-11-18T11:53:32;7.70;99.90
18906;DHT22;9585;51.018;4.282;2023-11-18T11:56:03;7.60;99.90
18906;DHT22;9585;51.018;4.282;2023-11-18T11:58:41;7.60;99.90
18906;DHT22;9585;51.018;4.282;2023-11-18T12:01:23;7.60;99.90
18906;DHT22;9585;51.018;4.282;2023-11-18T12:03:57;7.70;99.90
18906;DHT22;9585;51.018;4.282;2023-11-18T12:06:33;7.70;99.90
18906;DHT22;9585;51.018;4.282;2023-11-18T12:09:09;7.90;99.90
18906;DHT22;9585;51.018;4.282;2023-11-18T12:11:37;7.90;99.90
18906;DHT22;9585;51.018;4.282;2023-11-18T12:14:09;7.90;99.90
18906;DHT22;9585;51.018;4.282;2023-11-18T12:17:02;8.00;99.90
18906;DHT22;9585;51.018;4.282;2023-11-18T12:19:40;7.90;99.90
18906;DHT22;9585;51.018;4.282;2023-11-18T12:22:17;7.80;99.90
18906;DHT22;9585;51.018;4.282;2023-11-18T12:28:07;7.80;99.90
18906;DHT22;9585;51.018;4.282;2023-11-18T12:30:39;7.80;99.90
18906;DHT22;9585;51.018;4.282;2023-11-18T12:33:20;7.90;99.90
18906;DHT22;9585;51.018;4.282;2023-11-18T12:42:32;8.00;99.90
18906;DHT22;9585;51.018;4.282;2023-11-18T12:45:27;8.00;99.90
18906;DHT22;9585;51.018;4.282;2023-11-18T12:48:05;8.10;99.90
18906;DHT22;9585;51.018;4.282;2023-11-18T12:50:38;8.10;99.90
18906;DHT22;9585;51.018;4.282;2023-11-18T12:53:10;8.10;99.90
18906;DHT22;9585;51.018;4.282;2023-11-18T12:55:42;8.10;99.90
18906;DHT22;9585;51.018;4.282;2023-11-18T12:58:15;8.00;99.90
18906;DHT22;9585;51.018;4.282;2023-11-18T13:00:47;8.00;99.90
18906;DHT22;9585;51.018;4.282;2023-11-18T13:03:15;8.00;99.90
18906;DHT22;9585;51.018;4.282;2023-11-18T13:05:43;7.90;99.90
18906;DHT22;9585;51.018;4.282;2023-11-18T13:08:11;7.90;99.90
18906;DHT22;9585;51.018;4.282;2023-11-18T13:10:42;7.90;99.90
18906;DHT22;9585;51.018;4.282;2023-11-18T13:13:11;7.90;99.90
18906;DHT22;9585;51.018;4.282;2023-11-18T13:15:48;7.90;99.90
18906;DHT22;9585;51.018;4.282;2023-11-18T13:18:16;8.00;99.90
18906;DHT22;9585;51.018;4.282;2023-11-18T13:20:54;8.00;99.90
18906;DHT22;9585;51.018;4.282;2023-11-18T13:23:25;8.10;99.90
18906;DHT22;9585;51.018;4.282;2023-11-18T13:25:56;8.10;99.90
18906;DHT22;9585;51.018;4.282;2023-11-18T13:28:25;8.10;99.90
18906;DHT22;9585;51.018;4.282;2023-11-18T13:30:53;8.10;99.90
18906;DHT22;9585;51.018;4.282;2023-11-18T13:33:21;8.10;99.90
18906;DHT22;9585;51.018;4.282;2023-11-18T13:35:50;8.00;99.90
18906;DHT22;9585;51.018;4.282;2023-11-18T13:38:17;8.10;99.90
18906;DHT22;9585;51.018;4.282;2023-11-18T13:40:45;8.10;99.90
18906;DHT22;9585;51.018;4.282;2023-11-18T13:43:18;8.10;99.90
18906;DHT22;9585;51.018;4.282;2023-11-18T13:45:51;8.10;99.90
18906;DHT22;9585;51.018;4.282;2023-11-18T13:48:21;8.00;99.90
18906;DHT22;9585;51.018;4.282;2023-11-18T13:50:50;8.00;99.90
18906;DHT22;9585;51.018;4.282;2023-11-18T13:53:18;8.00;99.90
18906;DHT22;9585;51.018;4.282;2023-11-18T13:55:46;8.10;99.90
18906;DHT22;9585;51.018;4.282;2023-11-18T13:58:16;8.20;99.90
18906;DHT22;9585;51.018;4.282;2023-11-18T14:00:45;8.20;99.90
18906;DHT22;9585;51.018;4.282;2023-11-18T14:03:15;8.10;99.90
18906;DHT22;9585;51.018;4.282;2023-11-18T14:05:43;8.10;99.90
18906;DHT22;9585;51.018;4.282;2023-11-18T14:08:19;8.10;99.90
18906;DHT22;9585;51.018;4.282;2023-11-18T14:10:50;8.10;99.90
18906;DHT22;9585;51.018;4.282;2023-11-18T14:13:20;8.10;99.90
18906;DHT22;9585;51.018;4.282;2023-11-18T14:15:48;8.10;99.90
18906;DHT22;9585;51.018;4.282;2023-11-18T14:18:26;8.10;99.90
18906;DHT22;9585;51.018;4.282;2023-11-18T14:21:04;8.10;99.90
18906;DHT22;9585;51.018;4.282;2023-11-18T14:26:44;8.30;99.90
18906;DHT22;9585;51.018;4.282;2023-11-18T14:29:23;8.30;99.90
18906;DHT22;9585;51.018;4.282;2023-11-18T14:32:02;8.30;99.90
18906;DHT22;9585;51.018;4.282;2023-11-18T14:34:44;8.30;99.90
18906;DHT22;9585;51.018;4.282;2023-11-18T14:51:16;8.60;99.90
18906;DHT22;9585;51.018;4.282;2023-11-18T14:54:16;8.60;99.90
18906;DHT22;9585;51.018;4.282;2023-11-18T15:04:37;8.50;99.90
18906;DHT22;9585;51.018;4.282;2023-11-18T15:16:57;8.50;99.90
18906;DHT22;9585;51.018;4.282;2023-11-18T15:19:58;8.60;99.90
18906;DHT22;9585;51.018;4.282;2023-11-18T15:22:54;8.60;99.90
18906;DHT22;9585;51.018;4.282;2023-11-18T15:26:22;8.60;99.90
18906;DHT22;9585;51.018;4.282;2023-11-18T15:29:16;8.50;99.90
18906;DHT22;9585;51.018;4.282;2023-11-18T15:31:49;8.70;99.90
18906;DHT22;9585;51.018;4.282;2023-11-18T15:34:16;8.70;99.90
18906;DHT22;9585;51.018;4.282;2023-11-18T15:36:47;8.70;99.90
18906;DHT22;9585;51.018;4.282;2023-11-18T15:39:18;8.70;99.90
18906;DHT22;9585;51.018;4.282;2023-11-18T15:41:48;8.70;99.90
18906;DHT22;9585;51.018;4.282;2023-11-18T15:44:19;8.70;99.90
18906;DHT22;9585;51.018;4.282;2023-11-18T15:46:49;8.70;99.90
18906;DHT22;9585;51.018;4.282;2023-11-18T15:49:21;8.60;99.90
18906;DHT22;9585;51.018;4.282;2023-11-18T15:52:07;8.70;99.90
18906;DHT22;9585;51.018;4.282;2023-11-18T15:54:36;8.70;99.90
18906;DHT22;9585;51.018;4.282;2023-11-18T15:57:08;8.80;99.90
18906;DHT22;9585;51.018;4.282;2023-11-18T15:59:37;8.80;99.90
18906;DHT22;9585;51.018;4.282;2023-11-18T16:02:16;8.90;99.90
18906;DHT22;9585;51.018;4.282;2023-11-18T16:04:48;8.90;99.90
18906;DHT22;9585;51.018;4.282;2023-11-18T16:07:16;9.00;99.90
18906;DHT22;9585;51.018;4.282;2023-11-18T16:09:50;9.00;99.90
18906;DHT22;9585;51.018;4.282;2023-11-18T16:12:36;9.10;99.90
18906;DHT22;9585;51.018;4.282;2023-11-18T16:15:16;9.10;99.90
18906;DHT22;9585;51.018;4.282;2023-11-18T16:17:47;9.10;99.90
18906;DHT22;9585;51.018;4.282;2023-11-18T16:20:16;9.20;99.90
18906;DHT22;9585;51.018;4.282;2023-11-18T16:22:44;9.20;99.90
18906;DHT22;9585;51.018;4.282;2023-11-18T16:25:13;9.30;99.90
18906;DHT22;9585;51.018;4.282;2023-11-18T16:27:44;9.40;99.90
18906;DHT22;9585;51.018;4.282;2023-11-18T16:30:12;9.40;99.90
18906;DHT22;9585;51.018;4.282;2023-11-18T16:32:40;9.40;99.90
18906;DHT22;9585;51.018;4.282;2023-11-18T16:35:10;9.40;99.90
18906;DHT22;9585;51.018;4.282;2023-11-18T16:37:38;9.50;99.90
18906;DHT22;9585;51.018;4.282;2023-11-18T16:40:08;9.50;99.90
18906;DHT22;9585;51.018;4.282;2023-11-18T16:42:39;9.50;99.90
18906;DHT22;9585;51.018;4.282;2023-11-18T16:45:08;9.60;99.90
18906;DHT22;9585;51.018;4.282;2023-11-18T16:47:36;9.60;99.90
18906;DHT22;9585;51.018;4.282;2023-11-18T16:50:11;9.60;99.90
18906;DHT22;9585;51.018;4.282;2023-11-18T16:52:40;9.70;99.90
18906;DHT22;9585;51.018;4.282;2023-11-18T16:55:08;9.70;99.90
18906;DHT22;9585;51.018;4.282;2023-11-18T16:57:39;9.70;99.90
18906;DHT22;9585;51.018;4.282;2023-11-18T17:00:09;9.80;99.90
18906;DHT22;9585;51.018;4.282;2023-11-18T17:02:42;9.90;99.90
18906;DHT22;9585;51.018;4.282;2023-11-18T17:05:12;9.90;99.90
18906;DHT22;9585;51.018;4.282;2023-11-18T17:07:40;10.00;99.90
18906;DHT22;9585;51.018;4.282;2023-11-18T17:10:23;10.00;99.90